Time,TemperatureF,DewpointF,PressureIn,WindDirection,WindDirectionDegrees,WindSpeedMPH,WindSpeedGustMPH,Humidity,HourlyPrecipIn,Conditions,Clouds,dailyrainin,SolarRadiationWatts/m^2,SoftwareType,DateUTC
2013-09-26 00:01:00,64.5,-99.9,29.74,ESE,106,4.0,7.1,63,0.00,,,0.00,0,,2013-09-26 05:01:00,
2013-09-26 00:11:00,64.2,-99.9,29.73,SE,135,4.0,8.8,64,0.00,,,0.00,0,,2013-09-26 05:11:00,
2013-09-26 00:21:00,63.8,-99.9,29.73,ENE,73,2.0,5.4,65,0.00,,,0.00,0,,2013-09-26 05:21:00,
2013-09-26 00:31:00,63.7,-99.9,29.72,SE,137,2.0,7.1,65,0.00,,,0.00,0,,2013-09-26 05:31:00,
2013-09-26 00:41:00,63.2,-99.9,29.72,ENE,61,2.0,3.8,67,0.00,,,0.00,0,,2013-09-26 05:41:00,
2013-09-26 00:51:00,63.1,-99.9,29.72,SSE,157,5.0,10.5,67,0.00,,,0.00,0,,2013-09-26 05:51:00,
2013-09-26 01:01:00,62.9,-99.9,29.72,East,95,4.0,10.5,67,0.00,,,0.00,0,,2013-09-26 06:01:00,
2013-09-26 01:11:00,62.6,-99.9,29.71,SSE,153,4.0,7.1,68,0.00,,,0.00,0,,2013-09-26 06:11:00,
2013-09-26 01:21:00,62.5,-99.9,29.71,SE,133,5.0,8.8,69,0.00,,,0.00,0,,2013-09-26 06:21:00,
2013-09-26 01:31:00,62.3,-99.9,29.71,ESE,115,4.0,10.5,70,0.00,,,0.00,0,,2013-09-26 06:31:00,
2013-09-26 01:41:00,62.1,-99.9,29.71,SSE,150,4.0,7.1,70,0.00,,,0.00,0,,2013-09-26 06:41:00,
2013-09-26 01:51:00,61.8,-99.9,29.70,SE,143,4.0,5.4,71,0.00,,,0.00,0,,2013-09-26 06:51:00,
2013-09-26 02:01:00,61.7,-99.9,29.70,SE,124,3.0,7.1,71,0.00,,,0.00,0,,2013-09-26 07:01:00,
2013-09-26 02:11:00,61.7,-99.9,29.70,ESE,103,6.0,10.5,72,0.00,,,0.00,0,,2013-09-26 07:11:00,
2013-09-26 02:21:00,61.6,-99.9,29.70,SSE,158,4.0,8.8,72,0.00,,,0.00,0,,2013-09-26 07:21:00,
2013-09-26 02:31:00,61.6,-99.9,29.70,SSE,166,5.0,7.1,72,0.00,,,0.00,0,,2013-09-26 07:31:00,
2013-09-26 02:41:00,61.7,-99.9,29.69,SSE,159,5.0,7.1,72,0.00,,,0.00,0,,2013-09-26 07:41:00,
2013-09-26 02:51:00,61.8,-99.9,29.69,SSE,147,6.0,10.5,73,0.00,,,0.00,0,,2013-09-26 07:51:00,
2013-09-26 03:01:00,61.9,-99.9,29.69,ESE,123,6.0,10.5,72,0.00,,,0.00,0,,2013-09-26 08:01:00,
2013-09-26 03:11:00,61.7,-99.9,29.69,SSE,162,5.0,8.8,73,0.00,,,0.00,0,,2013-09-26 08:11:00,
2013-09-26 03:21:00,61.5,-99.9,29.69,East,86,5.0,8.8,74,0.00,,,0.00,0,,2013-09-26 08:21:00,
2013-09-26 03:31:00,61.4,-99.9,29.69,SE,124,4.0,8.8,74,0.00,,,0.00,0,,2013-09-26 08:31:00,
2013-09-26 03:41:00,61.3,-99.9,29.69,SSE,150,4.0,8.8,75,0.00,,,0.00,0,,2013-09-26 08:41:00,
2013-09-26 03:51:00,61.4,-99.9,29.68,SE,126,7.0,10.5,75,0.00,,,0.00,0,,2013-09-26 08:51:00,
2013-09-26 04:01:00,61.4,-99.9,29.68,South,191,5.0,10.5,75,0.00,,,0.00,0,,2013-09-26 09:01:00,
2013-09-26 04:11:00,61.3,-99.9,29.67,ESE,121,5.0,8.8,76,0.00,,,0.00,0,,2013-09-26 09:11:00,
2013-09-26 04:21:00,61.0,-99.9,29.67,South,180,3.0,8.8,77,0.00,,,0.00,0,,2013-09-26 09:21:00,
2013-09-26 04:31:00,60.6,-99.9,29.67,SSE,149,3.0,8.8,78,0.00,,,0.00,0,,2013-09-26 09:31:00,
2013-09-26 04:41:00,60.6,-99.9,29.66,SSE,157,5.0,7.1,78,0.00,,,0.00,0,,2013-09-26 09:41:00,
2013-09-26 04:51:00,60.6,-99.9,29.66,SSE,153,6.0,10.5,79,0.00,,,0.00,0,,2013-09-26 09:51:00,
2013-09-26 05:01:00,60.5,-99.9,29.66,SSE,163,4.0,7.1,79,0.00,,,0.00,0,,2013-09-26 10:01:00,
2013-09-26 05:11:00,60.5,-99.9,29.66,ESE,115,5.0,8.8,80,0.00,,,0.00,0,,2013-09-26 10:11:00,
2013-09-26 05:21:00,60.3,-99.9,29.65,ESE,103,7.0,13.8,80,0.00,,,0.00,0,,2013-09-26 10:21:00,
2013-09-26 05:31:00,60.2,-99.9,29.65,SE,137,4.0,10.5,81,0.00,,,0.00,0,,2013-09-26 10:31:00,
2013-09-26 05:41:00,59.8,-99.9,29.65,ESE,117,6.0,12.1,82,0.00,,,0.00,0,,2013-09-26 10:41:00,
2013-09-26 05:51:00,59.6,-99.9,29.65,SSE,160,5.0,8.8,82,0.00,,,0.00,0,,2013-09-26 10:51:00,
2013-09-26 06:01:00,59.3,-99.9,29.65,SE,135,2.0,7.1,83,0.00,,,0.00,0,,2013-09-26 11:01:00,
2013-09-26 06:11:00,59.3,-99.9,29.65,ESE,114,4.0,7.1,84,0.00,,,0.00,0,,2013-09-26 11:11:00,
2013-09-26 06:21:00,59.1,-99.9,29.65,SE,139,4.0,7.1,85,0.00,,,0.00,0,,2013-09-26 11:21:00,
2013-09-26 06:31:00,59.0,-99.9,29.65,East,98,3.0,7.1,85,0.00,,,0.00,0,,2013-09-26 11:31:00,
2013-09-26 06:41:00,58.8,-99.9,29.66,South,182,2.0,3.8,86,0.00,,,0.00,0,,2013-09-26 11:41:00,
2013-09-26 06:51:00,58.8,-99.9,29.66,East,91,1.0,3.8,86,0.00,,,0.00,0,,2013-09-26 11:51:00,
2013-09-26 07:01:00,58.7,-99.9,29.66,SSE,167,3.0,5.4,87,0.00,,,0.00,0,,2013-09-26 12:01:00,
2013-09-26 07:11:00,58.6,-99.9,29.66,ESE,119,4.0,7.1,87,0.00,,,0.00,0.447,,2013-09-26 12:11:00,
2013-09-26 07:21:00,58.5,-99.9,29.66,SSE,157,3.0,7.1,88,0.00,,,0.00,2.403,,2013-09-26 12:21:00,
2013-09-26 07:31:00,58.4,-99.9,29.66,SSE,166,3.0,5.4,88,0.00,,,0.00,6.343,,2013-09-26 12:31:00,
2013-09-26 07:41:00,58.5,-99.9,29.66,ESE,111,3.0,5.4,88,0.00,,,0.00,15.97,,2013-09-26 12:41:00,
2013-09-26 07:51:00,58.9,-99.9,29.66,SSE,152,4.0,5.4,88,0.00,,,0.00,31.93,,2013-09-26 12:51:00,
2013-09-26 08:01:00,59.1,-99.9,29.66,ESE,104,3.0,5.4,87,0.00,,,0.00,59.19,,2013-09-26 13:01:00,
2013-09-26 08:11:00,59.7,-99.9,29.66,SSE,153,4.0,7.1,86,0.00,,,0.00,85.3,,2013-09-26 13:11:00,
2013-09-26 08:21:00,60.3,-99.9,29.65,SSE,155,2.0,5.4,85,0.00,,,0.00,124.5,,2013-09-26 13:21:00,
2013-09-26 08:31:00,60.5,-99.9,29.65,ESE,115,5.0,10.5,85,0.00,,,0.00,149.6,,2013-09-26 13:31:00,
2013-09-26 08:41:00,61.2,-99.9,29.65,ESE,110,7.0,12.1,83,0.00,,,0.00,217.3,,2013-09-26 13:41:00,
2013-09-26 08:51:00,61.7,-99.9,29.65,ESE,117,3.0,7.1,83,0.00,,,0.00,223.2,,2013-09-26 13:51:00,
2013-09-26 09:01:00,62.1,-99.9,29.65,SE,127,6.0,10.5,83,0.00,,,0.00,107.2,,2013-09-26 14:01:00,
2013-09-26 09:11:00,62.5,-99.9,29.65,SSE,157,6.0,13.8,82,0.00,,,0.00,276.6,,2013-09-26 14:11:00,
2013-09-26 09:21:00,63.1,-99.9,29.65,SSE,152,5.0,10.5,81,0.00,,,0.00,306.6,,2013-09-26 14:21:00,
2013-09-26 09:31:00,63.6,-99.9,29.65,SE,125,7.0,12.1,80,0.00,,,0.00,320.3,,2013-09-26 14:31:00,
2013-09-26 09:41:00,64.4,-99.9,29.65,East,89,6.0,10.5,78,0.00,,,0.00,351,,2013-09-26 14:41:00,
2013-09-26 09:51:00,65.2,-99.9,29.65,SSW,196,7.0,12.1,76,0.00,,,0.00,398,,2013-09-26 14:51:00,
2013-09-26 10:01:00,65.3,-99.9,29.65,SE,130,7.0,13.8,77,0.00,,,0.00,392,,2013-09-26 15:01:00,
2013-09-26 10:11:00,65.4,-99.9,29.65,North,7,5.0,8.8,76,0.00,,,0.00,487.7,,2013-09-26 15:11:00,
2013-09-26 10:21:00,65.8,-99.9,29.65,SSE,164,5.0,8.8,76,0.00,,,0.00,203.4,,2013-09-26 15:21:00,
2013-09-26 10:31:00,67.4,-99.9,29.65,ENE,73,7.0,15.5,72,0.00,,,0.00,339.8,,2013-09-26 15:31:00,
2013-09-26 10:41:00,68.1,-99.9,29.65,South,183,7.0,12.1,71,0.00,,,0.00,513.3,,2013-09-26 15:41:00,
2013-09-26 10:51:00,69.2,-99.9,29.65,SSE,157,8.0,15.5,69,0.00,,,0.00,411.1,,2013-09-26 15:51:00,
2013-09-26 11:01:00,69.7,-99.9,29.65,SE,125,4.0,8.8,68,0.00,,,0.00,557.4,,2013-09-26 16:01:00,
2013-09-26 11:11:00,69.6,-99.9,29.65,SSE,165,8.0,13.8,68,0.00,,,0.00,547.2,,2013-09-26 16:11:00,
2013-09-26 11:21:00,70.7,-99.9,29.65,South,190,6.0,12.1,66,0.00,,,0.00,568,,2013-09-26 16:21:00,
2013-09-26 11:31:00,71.8,-99.9,29.65,SSE,152,6.0,13.8,65,0.00,,,0.00,578.7,,2013-09-26 16:31:00,
2013-09-26 11:41:00,71.2,-99.9,29.65,SE,131,3.0,5.4,66,0.00,,,0.00,248.6,,2013-09-26 16:41:00,
2013-09-26 11:51:00,72.8,-99.9,29.65,SSE,160,8.0,13.8,63,0.00,,,0.00,657.5,,2013-09-26 16:51:00,
2013-09-26 12:01:00,73.4,-99.9,29.65,SSW,193,5.0,10.5,62,0.00,,,0.00,239.1,,2013-09-26 17:01:00,
2013-09-26 12:11:00,70.9,-99.9,29.65,SSE,161,6.0,12.1,66,0.00,,,0.00,190.4,,2013-09-26 17:11:00,
2013-09-26 12:21:00,70.6,-99.9,29.65,SE,139,7.0,12.1,67,0.00,,,0.00,207.8,,2013-09-26 17:21:00,
2013-09-26 12:31:00,70.5,-99.9,29.65,SSE,160,7.0,10.5,66,0.00,,,0.00,207.2,,2013-09-26 17:31:00,
2013-09-26 12:41:00,70.5,-99.9,29.65,South,185,6.0,10.5,67,0.00,,,0.00,189.9,,2013-09-26 17:41:00,
2013-09-26 12:51:00,71.0,-99.9,29.65,South,190,5.0,7.1,67,0.00,,,0.00,190.6,,2013-09-26 17:51:00,
2013-09-26 13:01:00,71.7,-99.9,29.65,SE,134,4.0,7.1,67,0.00,,,0.00,498,,2013-09-26 18:01:00,
2013-09-26 13:11:00,72.8,-99.9,29.65,SSE,168,3.0,5.4,63,0.00,,,0.00,269,,2013-09-26 18:11:00,
2013-09-26 13:21:00,74.1,-99.9,29.65,SSW,192,2.0,5.4,61,0.00,,,0.00,240.6,,2013-09-26 18:21:00,
2013-09-26 13:31:00,75.0,-99.9,29.65,SW,223,5.0,8.8,58,0.00,,,0.00,309.2,,2013-09-26 18:31:00,
2013-09-26 13:41:00,75.1,-99.9,29.65,SSW,198,4.0,10.5,58,0.00,,,0.00,268,,2013-09-26 18:41:00,
2013-09-26 13:51:00,75.4,-99.9,29.65,South,188,6.0,10.5,58,0.00,,,0.00,228.7,,2013-09-26 18:51:00,
2013-09-26 14:01:00,75.4,-99.9,29.65,South,187,5.0,10.5,57,0.00,,,0.00,222.9,,2013-09-26 19:01:00,
2013-09-26 14:11:00,75.1,-99.9,29.66,South,189,3.0,5.4,57,0.00,,,0.00,257.8,,2013-09-26 19:11:00,
2013-09-26 14:21:00,75.9,-99.9,29.66,SSE,160,3.0,7.1,57,0.00,,,0.00,302.6,,2013-09-26 19:21:00,
2013-09-26 14:31:00,76.3,-99.9,29.66,SSW,195,5.0,8.8,55,0.00,,,0.00,338.1,,2013-09-26 19:31:00,
2013-09-26 14:41:00,76.5,-99.9,29.66,South,191,4.0,7.1,55,0.00,,,0.00,247.2,,2013-09-26 19:41:00,
2013-09-26 14:51:00,76.0,-99.9,29.66,West,261,6.0,12.1,57,0.00,,,0.00,202.9,,2013-09-26 19:51:00,
2013-09-26 15:01:00,76.6,-99.9,29.66,South,180,5.0,7.1,54,0.00,,,0.00,221.2,,2013-09-26 20:01:00,
2013-09-26 15:11:00,76.4,-99.9,29.67,South,172,4.0,8.8,55,0.00,,,0.00,196.1,,2013-09-26 20:11:00,
2013-09-26 15:21:00,76.4,-99.9,29.67,South,184,6.0,10.5,55,0.00,,,0.00,144.8,,2013-09-26 20:21:00,
2013-09-26 15:31:00,75.7,-99.9,29.67,SSW,212,5.0,10.5,57,0.00,,,0.00,135.8,,2013-09-26 20:31:00,
2013-09-26 15:51:00,76.0,-99.9,29.68,SSE,165,3.0,7.1,57,0.00,,,0.00,159.8,,2013-09-26 20:51:00,
2013-09-26 16:01:00,75.9,-99.9,29.68,West,265,9.0,13.8,59,0.00,,,0.00,259,,2013-09-26 21:01:00,
2013-09-26 16:11:00,75.3,-99.9,29.68,West,271,8.0,12.1,61,0.00,,,0.00,370.9,,2013-09-26 21:11:00,
2013-09-26 16:21:00,76.2,-99.9,29.69,WSW,245,10.0,13.8,59,0.00,,,0.00,468.4,,2013-09-26 21:21:00,
2013-09-26 16:31:00,76.1,-99.9,29.69,WSW,243,10.0,13.8,59,0.00,,,0.00,469,,2013-09-26 21:31:00,
2013-09-26 16:41:00,76.8,-99.9,29.69,WSW,247,7.0,10.5,58,0.00,,,0.00,346.4,,2013-09-26 21:41:00,
2013-09-26 16:51:00,76.4,-99.9,29.69,WSW,242,11.0,13.8,58,0.00,,,0.00,290.4,,2013-09-26 21:51:00,
2013-09-26 17:01:00,76.6,-99.9,29.69,WSW,247,6.0,8.8,56,0.00,,,0.00,261.7,,2013-09-26 22:01:00,
2013-09-26 17:11:00,76.3,-99.9,29.70,WSW,239,6.0,10.5,57,0.00,,,0.00,250.3,,2013-09-26 22:11:00,
2013-09-26 17:21:00,77.1,-99.9,29.70,WSW,241,6.0,7.1,58,0.00,,,0.00,211.7,,2013-09-26 22:21:00,
2013-09-26 17:31:00,75.7,-99.9,29.70,WSW,256,5.0,7.1,59,0.00,,,0.00,98.3,,2013-09-26 22:31:00,
2013-09-26 17:41:00,74.4,-99.9,29.71,SW,220,4.0,7.1,61,0.00,,,0.00,57.62,,2013-09-26 22:41:00,
2013-09-26 17:51:00,74.2,-99.9,29.71,SW,214,3.0,5.4,61,0.00,,,0.00,72.71,,2013-09-26 22:51:00,
2013-09-26 18:01:00,74.1,-99.9,29.71,WSW,239,2.0,3.8,61,0.00,,,0.00,54.79,,2013-09-26 23:01:00,
2013-09-26 18:11:00,75.3,-99.9,29.71,SSW,208,2.0,3.8,59,0.00,,,0.00,102.8,,2013-09-26 23:11:00,
2013-09-26 18:21:00,76.5,-99.9,29.72,SW,236,3.0,3.8,59,0.00,,,0.00,105.3,,2013-09-26 23:21:00,
2013-09-26 18:31:00,74.3,-99.9,29.72,WSW,255,5.0,7.1,60,0.00,,,0.00,48.56,,2013-09-26 23:31:00,
2013-09-26 18:41:00,73.0,-99.9,29.73,West,274,7.0,8.8,63,0.00,,,0.00,40.54,,2013-09-26 23:41:00,
2013-09-26 18:51:00,72.1,-99.9,29.73,WNW,293,7.0,10.5,64,0.00,,,0.00,24.37,,2013-09-26 23:51:00,
2013-09-26 19:01:00,71.4,-99.9,29.73,North,11,5.0,8.8,66,0.00,,,0.00,16.97,,2013-09-27 00:01:00,
2013-09-26 19:11:00,70.7,-99.9,29.74,WNW,295,4.0,5.4,67,0.00,,,0.00,8.91,,2013-09-27 00:11:00,
2013-09-26 19:21:00,69.9,-99.9,29.75,WNW,282,3.0,5.4,68,0.00,,,0.00,4.016,,2013-09-27 00:21:00,
2013-09-26 19:31:00,69.2,-99.9,29.75,WNW,283,4.0,7.1,69,0.00,,,0.00,1.611,,2013-09-27 00:31:00,
2013-09-26 19:41:00,68.3,-99.9,29.75,NW,307,4.0,5.4,70,0.00,,,0.00,0.406,,2013-09-27 00:41:00,
2013-09-26 19:51:00,68.0,-99.9,29.75,WNW,302,4.0,5.4,70,0.00,,,0.00,0,,2013-09-27 00:51:00,
2013-09-26 20:01:00,67.0,-99.9,29.76,WNW,289,6.0,8.8,71,0.00,,,0.00,0,,2013-09-27 01:01:00,
2013-09-26 20:11:00,66.6,-99.9,29.76,WNW,289,6.0,8.8,71,0.00,,,0.00,0,,2013-09-27 01:11:00,
2013-09-26 20:21:00,66.2,-99.9,29.77,WNW,284,4.0,7.1,71,0.00,,,0.00,0,,2013-09-27 01:21:00,
2013-09-26 20:31:00,65.7,-99.9,29.77,West,272,7.0,8.8,71,0.00,,,0.00,0,,2013-09-27 01:31:00,
2013-09-26 20:41:00,64.9,-99.9,29.78,WNW,285,6.0,8.8,71,0.00,,,0.00,0,,2013-09-27 01:41:00,
2013-09-26 20:51:00,64.5,-99.9,29.78,WNW,288,5.0,8.8,71,0.00,,,0.00,0,,2013-09-27 01:51:00,
2013-09-26 21:01:00,64.1,-99.9,29.78,West,262,5.0,7.1,71,0.00,,,0.00,0,,2013-09-27 02:01:00,
2013-09-26 21:11:00,64.0,-99.9,29.78,WNW,284,6.0,7.1,71,0.00,,,0.00,0,,2013-09-27 02:11:00,
2013-09-26 21:21:00,63.9,-99.9,29.79,NNW,347,1.0,3.8,71,0.00,,,0.00,0,,2013-09-27 02:21:00,
2013-09-26 21:31:00,63.7,-99.9,29.79,WSW,239,2.0,5.4,71,0.00,,,0.00,0,,2013-09-27 02:31:00,
2013-09-26 21:41:00,63.5,-99.9,29.79,NW,315,4.0,7.1,72,0.00,,,0.00,0,,2013-09-27 02:41:00,
2013-09-26 21:51:00,63.2,-99.9,29.80,NW,308,4.0,5.4,72,0.00,,,0.00,0,,2013-09-27 02:51:00,
2013-09-26 22:01:00,63.0,-99.9,29.80,WNW,298,4.0,8.8,72,0.00,,,0.00,0,,2013-09-27 03:01:00,
2013-09-26 22:11:00,62.8,-99.9,29.80,West,278,3.0,5.4,72,0.00,,,0.00,0,,2013-09-27 03:11:00,
2013-09-26 22:21:00,62.6,-99.9,29.80,WNW,282,4.0,5.4,72,0.00,,,0.00,0,,2013-09-27 03:21:00,
2013-09-26 22:31:00,62.2,-99.9,29.81,NW,322,5.0,8.8,73,0.00,,,0.00,0,,2013-09-27 03:31:00,
2013-09-26 22:41:00,61.7,-99.9,29.80,WNW,302,5.0,8.8,73,0.00,,,0.00,0,,2013-09-27 03:41:00,
2013-09-26 22:51:00,61.2,-99.9,29.81,WNW,302,5.0,8.8,74,0.00,,,0.00,0,,2013-09-27 03:51:00,
2013-09-26 23:01:00,60.7,-99.9,29.81,WNW,290,4.0,8.8,74,0.00,,,0.00,0,,2013-09-27 04:01:00,
2013-09-26 23:11:00,60.3,-99.9,29.80,NNW,328,6.0,13.8,75,0.00,,,0.00,0,,2013-09-27 04:11:00,
2013-09-26 23:21:00,59.9,-99.9,29.80,NW,313,3.0,5.4,75,0.00,,,0.00,0,,2013-09-27 04:21:00,
2013-09-26 23:31:00,59.8,-99.9,29.80,NW,320,3.0,5.4,75,0.00,,,0.00,0,,2013-09-27 04:31:00,
2013-09-26 23:41:00,59.3,-99.9,29.81,North,351,2.0,3.8,76,0.00,,,0.00,0,,2013-09-27 04:41:00,
2013-09-26 23:51:00,58.9,-99.9,29.80,NW,306,4.0,5.4,77,0.00,,,0.00,0,,2013-09-27 04:51:00,